sensor_id;sensor_type;location;lat;lon;timestamp;pressure;altitude;pressure_sealevel;temperature;humidity
65880;BME280;52661;51.364;6.054;2022-10-16T00:00:31;100845.81;;;13.19;100.00
65880;BME280;52661;51.364;6.054;2022-10-16T00:02:56;100844.22;;;13.22;100.00
65880;BME280;52661;51.364;6.054;2022-10-16T00:05:22;100844.22;;;13.22;100.00
65880;BME280;52661;51.364;6.054;2022-10-16T00:07:48;100845.00;;;13.22;100.00
65880;BME280;52661;51.364;6.054;2022-10-16T00:10:13;100836.84;;;13.22;100.00
65880;BME280;52661;51.364;6.054;2022-10-16T00:12:38;100842.69;;;13.21;100.00
65880;BME280;52661;51.364;6.054;2022-10-16T00:15:04;100840.72;;;13.21;100.00
65880;BME280;52661;51.364;6.054;2022-10-16T00:17:30;100844.22;;;13.22;100.00
65880;BME280;52661;51.364;6.054;2022-10-16T00:19:56;100834.88;;;13.23;100.00
65880;BME280;52661;51.364;6.054;2022-10-16T00:22:22;100835.28;;;13.21;100.00
65880;BME280;52661;51.364;6.054;2022-10-16T00:24:47;100829.81;;;13.21;100.00
65880;BME280;52661;51.364;6.054;2022-10-16T00:27:12;100831.78;;;13.21;100.00
65880;BME280;52661;51.364;6.054;2022-10-16T00:29:37;100836.06;;;13.22;100.00
65880;BME280;52661;51.364;6.054;2022-10-16T00:32:03;100841.50;;;13.22;100.00
65880;BME280;52661;51.364;6.054;2022-10-16T00:34:28;100833.28;;;13.25;100.00
65880;BME280;52661;51.364;6.054;2022-10-16T00:36:54;100827.84;;;13.25;100.00
65880;BME280;52661;51.364;6.054;2022-10-16T00:39:19;100825.50;;;13.27;100.00
65880;BME280;52661;51.364;6.054;2022-10-16T00:41:44;100820.44;;;13.26;100.00
65880;BME280;52661;51.364;6.054;2022-10-16T00:44:42;100830.56;;;13.25;100.00
65880;BME280;52661;51.364;6.054;2022-10-16T00:47:26;100830.22;;;13.23;100.00
65880;BME280;52661;51.364;6.054;2022-10-16T00:50:00;100830.25;;;13.20;100.00
65880;BME280;52661;51.364;6.054;2022-10-16T00:52:27;100829.44;;;13.23;100.00
65880;BME280;52661;51.364;6.054;2022-10-16T00:54:53;100826.72;;;13.23;100.00
65880;BME280;52661;51.364;6.054;2022-10-16T00:57:19;100836.06;;;13.22;100.00
65880;BME280;52661;51.364;6.054;2022-10-16T00:59:45;100844.63;;;13.20;100.00
65880;BME280;52661;51.364;6.054;2022-10-16T01:02:13;100843.09;;;13.19;100.00
65880;BME280;52661;51.364;6.054;2022-10-16T01:04:46;100841.94;;;13.17;100.00
65880;BME280;52661;51.364;6.054;2022-10-16T01:18:18;100840.09;;;13.00;100.00
65880;BME280;52661;51.364;6.054;2022-10-16T01:21:02;100838.94;;;13.01;100.00
65880;BME280;52661;51.364;6.054;2022-10-16T01:29:03;100838.50;;;13.06;100.00
65880;BME280;52661;51.364;6.054;2022-10-16T01:31:36;100825.66;;;13.03;100.00
65880;BME280;52661;51.364;6.054;2022-10-16T01:34:20;100833.84;;;13.03;100.00
65880;BME280;52661;51.364;6.054;2022-10-16T01:36:53;100832.34;;;12.98;100.00
65880;BME280;52661;51.364;6.054;2022-10-16T01:39:23;100830.41;;;12.95;100.00
65880;BME280;52661;51.364;6.054;2022-10-16T01:41:55;100835.50;;;12.93;100.00
65880;BME280;52661;51.364;6.054;2022-10-16T01:44:28;100824.97;;;12.92;100.00
65880;BME280;52661;51.364;6.054;2022-10-16T01:46:56;100830.47;;;12.84;100.00
65880;BME280;52661;51.364;6.054;2022-10-16T01:49:24;100829.34;;;12.82;100.00
65880;BME280;52661;51.364;6.054;2022-10-16T01:51:55;100846.44;;;12.86;100.00
65880;BME280;52661;51.364;6.054;2022-10-16T01:54:23;100839.09;;;12.79;100.00
65880;BME280;52661;51.364;6.054;2022-10-16T01:56:51;100852.75;;;12.76;100.00
65880;BME280;52661;51.364;6.054;2022-10-16T01:59:20;100853.94;;;12.71;100.00
65880;BME280;52661;51.364;6.054;2022-10-16T02:01:50;100849.25;;;12.75;100.00
65880;BME280;52661;51.364;6.054;2022-10-16T02:04:28;100844.97;;;12.74;100.00
65880;BME280;52661;51.364;6.054;2022-10-16T02:06:55;100843.41;;;12.73;100.00
65880;BME280;52661;51.364;6.054;2022-10-16T02:09:21;100857.00;;;12.77;100.00
65880;BME280;52661;51.364;6.054;2022-10-16T02:11:46;100851.19;;;12.75;100.00
65880;BME280;52661;51.364;6.054;2022-10-16T02:14:14;100865.16;;;12.77;100.00
65880;BME280;52661;51.364;6.054;2022-10-16T02:16:45;100865.16;;;12.77;100.00
65880;BME280;52661;51.364;6.054;2022-10-16T02:19:15;100853.13;;;12.74;100.00
65880;BME280;52661;51.364;6.054;2022-10-16T02:21:53;100843.03;;;12.71;100.00
65880;BME280;52661;51.364;6.054;2022-10-16T02:24:30;100850.41;;;12.74;100.00
65880;BME280;52661;51.364;6.054;2022-10-16T02:27:31;100850.38;;;12.78;100.00
65880;BME280;52661;51.364;6.054;2022-10-16T02:30:05;100850.41;;;12.74;100.00
65880;BME280;52661;51.364;6.054;2022-10-16T02:32:34;100860.50;;;12.77;100.00
65880;BME280;52661;51.364;6.054;2022-10-16T02:35:01;100854.69;;;12.75;100.00
65880;BME280;52661;51.364;6.054;2022-10-16T02:37:28;100854.28;;;12.77;100.00
65880;BME280;52661;51.364;6.054;2022-10-16T02:39:54;100859.38;;;12.71;100.00
65880;BME280;52661;51.364;6.054;2022-10-16T02:42:20;100859.34;;;12.78;100.00
65880;BME280;52661;51.364;6.054;2022-10-16T02:44:45;100858.19;;;12.76;100.00
65880;BME280;52661;51.364;6.054;2022-10-16T02:47:11;100866.34;;;12.76;100.00
65880;BME280;52661;51.364;6.054;2022-10-16T02:49:37;100870.28;;;12.71;100.00
65880;BME280;52661;51.364;6.054;2022-10-16T02:52:02;100868.31;;;12.72;100.00
65880;BME280;52661;51.364;6.054;2022-10-16T02:54:28;100862.47;;;12.73;100.00
65880;BME280;52661;51.364;6.054;2022-10-16T02:56:53;100867.88;;;12.77;100.00
65880;BME280;52661;51.364;6.054;2022-10-16T02:59:18;100861.69;;;12.76;100.00
65880;BME280;52661;51.364;6.054;2022-10-16T03:01:44;100850.41;;;12.74;100.00
65880;BME280;52661;51.364;6.054;2022-10-16T03:04:09;100852.38;;;12.70;100.00
65880;BME280;52661;51.364;6.054;2022-10-16T03:06:34;100844.63;;;12.69;100.00
65880;BME280;52661;51.364;6.054;2022-10-16T03:09:00;100839.53;;;12.71;100.00
65880;BME280;52661;51.364;6.054;2022-10-16T03:11:25;100843.44;;;12.70;100.00
65880;BME280;52661;51.364;6.054;2022-10-16T03:13:51;100847.69;;;12.71;100.00
65880;BME280;52661;51.364;6.054;2022-10-16T03:16:16;100854.28;;;12.73;100.00
65880;BME280;52661;51.364;6.054;2022-10-16T03:18:42;100862.88;;;12.72;100.00
65880;BME280;52661;51.364;6.054;2022-10-16T03:21:07;100857.44;;;12.72;100.00
65880;BME280;52661;51.364;6.054;2022-10-16T03:23:32;100860.53;;;12.74;100.00
65880;BME280;52661;51.364;6.054;2022-10-16T03:25:58;100866.75;;;12.74;100.00
65880;BME280;52661;51.364;6.054;2022-10-16T03:28:23;100871.41;;;12.74;100.00
65880;BME280;52661;51.364;6.054;2022-10-16T03:30:49;100880.38;;;12.74;100.00
65880;BME280;52661;51.364;6.054;2022-10-16T03:33:14;100881.13;;;12.78;100.00
65880;BME280;52661;51.364;6.054;2022-10-16T03:35:39;100886.19;;;12.80;100.00
65880;BME280;52661;51.364;6.054;2022-10-16T03:38:05;100888.91;;;12.80;100.00
65880;BME280;52661;51.364;6.054;2022-10-16T03:40:30;100881.88;;;12.82;100.00
65880;BME280;52661;51.364;6.054;2022-10-16T03:42:57;100894.69;;;12.86;100.00
65880;BME280;52661;51.364;6.054;2022-10-16T03:45:23;100895.84;;;12.88;100.00
65880;BME280;52661;51.364;6.054;2022-10-16T03:47:48;100882.22;;;12.88;100.00
65880;BME280;52661;51.364;6.054;2022-10-16T03:50:14;100879.13;;;12.86;100.00
65880;BME280;52661;51.364;6.054;2022-10-16T03:52:39;100874.03;;;12.88;100.00
65880;BME280;52661;51.364;6.054;2022-10-16T03:55:05;100882.59;;;12.90;100.00
65880;BME280;52661;51.364;6.054;2022-10-16T03:57:31;100890.78;;;12.90;100.00
65880;BME280;52661;51.364;6.054;2022-10-16T03:59:56;100884.19;;;12.88;100.00
65880;BME280;52661;51.364;6.054;2022-10-16T04:02:21;100895.44;;;12.90;100.00
65880;BME280;52661;51.364;6.054;2022-10-16T04:04:47;100900.91;;;12.90;100.00
65880;BME280;52661;51.364;6.054;2022-10-16T04:07:12;100890.34;;;12.92;100.00
65880;BME280;52661;51.364;6.054;2022-10-16T04:09:37;100901.25;;;12.92;100.00
65880;BME280;52661;51.364;6.054;2022-10-16T04:12:03;100903.22;;;12.91;100.00
65880;BME280;52661;51.364;6.054;2022-10-16T04:14:28;100905.97;;;12.91;100.00
65880;BME280;52661;51.364;6.054;2022-10-16T04:16:53;100905.53;;;12.93;100.00
65880;BME280;52661;51.364;6.054;2022-10-16T04:19:18;100904.75;;;12.92;100.00
65880;BME280;52661;51.364;6.054;2022-10-16T04:21:44;100921.53;;;12.91;100.00
65880;BME280;52661;51.364;6.054;2022-10-16T04:24:09;100921.88;;;12.93;100.00
65880;BME280;52661;51.364;6.054;2022-10-16T04:26:36;100924.63;;;12.93;100.00
65880;BME280;52661;51.364;6.054;2022-10-16T04:29:01;100920.34;;;12.88;100.00
65880;BME280;52661;51.364;6.054;2022-10-16T04:31:27;100919.97;;;12.90;100.00
65880;BME280;52661;51.364;6.054;2022-10-16T04:33:52;100925.03;;;12.91;100.00
65880;BME280;52661;51.364;6.054;2022-10-16T04:36:17;100925.38;;;12.93;100.00
65880;BME280;52661;51.364;6.054;2022-10-16T04:38:43;100928.13;;;12.93;100.00
65880;BME280;52661;51.364;6.054;2022-10-16T04:41:08;100929.28;;;12.92;100.00
65880;BME280;52661;51.364;6.054;2022-10-16T04:43:34;100921.09;;;12.96;100.00
65880;BME280;52661;51.364;6.054;2022-10-16T04:45:59;100931.19;;;12.95;100.00
65880;BME280;52661;51.364;6.054;2022-10-16T04:48:25;100935.91;;;12.95;100.00
65880;BME280;52661;51.364;6.054;2022-10-16T04:50:50;100926.94;;;12.94;100.00
65880;BME280;52661;51.364;6.054;2022-10-16T04:53:15;100934.34;;;12.94;100.00
65880;BME280;52661;51.364;6.054;2022-10-16T04:55:41;100935.94;;;12.91;100.00
65880;BME280;52661;51.364;6.054;2022-10-16T04:58:07;100939.41;;;12.92;100.00
65880;BME280;52661;51.364;6.054;2022-10-16T05:00:33;100946.81;;;12.91;100.00
65880;BME280;52661;51.364;6.054;2022-10-16T05:02:59;100956.94;;;12.91;100.00
65880;BME280;52661;51.364;6.054;2022-10-16T05:05:26;100946.03;;;12.91;100.00
65880;BME280;52661;51.364;6.054;2022-10-16T05:07:51;100960.81;;;12.93;100.00
65880;BME280;52661;51.364;6.054;2022-10-16T05:10:17;100948.75;;;12.91;100.00
65880;BME280;52661;51.364;6.054;2022-10-16T05:12:42;100944.88;;;12.88;100.00
65880;BME280;52661;51.364;6.054;2022-10-16T05:15:08;100942.56;;;12.87;100.00
65880;BME280;52661;51.364;6.054;2022-10-16T05:17:34;100941.78;;;12.86;100.00
65880;BME280;52661;51.364;6.054;2022-10-16T05:19:59;100947.22;;;12.86;100.00
65880;BME280;52661;51.364;6.054;2022-10-16T05:22:24;100941.81;;;12.82;100.00
65880;BME280;52661;51.364;6.054;2022-10-16T05:24:50;100951.13;;;12.81;100.00
65880;BME280;52661;51.364;6.054;2022-10-16T05:27:15;100956.19;;;12.83;100.00
65880;BME280;52661;51.364;6.054;2022-10-16T05:29:45;100951.56;;;12.80;100.00
65880;BME280;52661;51.364;6.054;2022-10-16T05:32:11;100957.38;;;12.82;100.00
65880;BME280;52661;51.364;6.054;2022-10-16T05:34:37;100961.25;;;12.81;100.00
65880;BME280;52661;51.364;6.054;2022-10-16T05:37:02;100985.75;;;12.81;100.00
65880;BME280;52661;51.364;6.054;2022-10-16T05:39:27;100981.50;;;12.80;100.00
65880;BME280;52661;51.364;6.054;2022-10-16T05:41:53;100986.97;;;12.80;100.00
65880;BME280;52661;51.364;6.054;2022-10-16T05:44:18;100986.97;;;12.76;100.00
65880;BME280;52661;51.364;6.054;2022-10-16T05:46:46;100981.13;;;12.74;100.00
65880;BME280;52661;51.364;6.054;2022-10-16T05:49:11;100984.66;;;12.71;100.00
65880;BME280;52661;51.364;6.054;2022-10-16T05:51:36;100997.91;;;12.69;100.00
65880;BME280;52661;51.364;6.054;2022-10-16T05:54:02;100996.72;;;12.67;100.00
65880;BME280;52661;51.364;6.054;2022-10-16T05:56:27;100996.34;;;12.68;100.00
65880;BME280;52661;51.364;6.054;2022-10-16T05:58:52;101008.81;;;12.66;100.00
65880;BME280;52661;51.364;6.054;2022-10-16T06:01:18;101002.59;;;12.65;100.00
65880;BME280;52661;51.364;6.054;2022-10-16T06:03:44;101012.28;;;12.66;100.00
65880;BME280;52661;51.364;6.054;2022-10-16T06:06:14;101020.84;;;12.68;100.00
65880;BME280;52661;51.364;6.054;2022-10-16T06:08:41;101026.31;;;12.65;100.00
65880;BME280;52661;51.364;6.054;2022-10-16T06:11:09;101026.69;;;12.67;100.00
65880;BME280;52661;51.364;6.054;2022-10-16T06:13:35;101035.25;;;12.65;100.00
65880;BME280;52661;51.364;6.054;2022-10-16T06:16:02;101040.31;;;12.67;100.00
65880;BME280;52661;51.364;6.054;2022-10-16T06:18:28;101037.56;;;12.67;100.00
65880;BME280;52661;51.364;6.054;2022-10-16T06:20:55;101048.88;;;12.69;100.00
65880;BME280;52661;51.364;6.054;2022-10-16T06:23:20;101056.63;;;12.67;100.00
65880;BME280;52661;51.364;6.054;2022-10-16T06:25:46;101049.66;;;12.66;100.00
65880;BME280;52661;51.364;6.054;2022-10-16T06:28:13;101062.09;;;12.67;100.00
65880;BME280;52661;51.364;6.054;2022-10-16T06:30:39;101062.50;;;12.65;100.00
65880;BME280;52661;51.364;6.054;2022-10-16T06:33:04;101073.38;;;12.65;100.00
65880;BME280;52661;51.364;6.054;2022-10-16T06:35:30;101069.09;;;12.68;100.00
65880;BME280;52661;51.364;6.054;2022-10-16T06:37:57;101066.75;;;12.66;100.00
65880;BME280;52661;51.364;6.054;2022-10-16T06:40:22;101077.25;;;12.68;100.00
65880;BME280;52661;51.364;6.054;2022-10-16T06:42:47;101087.78;;;12.66;100.00
65880;BME280;52661;51.364;6.054;2022-10-16T06:45:13;101097.88;;;12.69;100.00
65880;BME280;52661;51.364;6.054;2022-10-16T06:47:38;101094.75;;;12.67;100.00
65880;BME280;52661;51.364;6.054;2022-10-16T06:50:04;101097.91;;;12.65;100.00
65880;BME280;52661;51.364;6.054;2022-10-16T06:52:32;101108.00;;;12.65;100.00
65880;BME280;52661;51.364;6.054;2022-10-16T06:54:58;101117.34;;;12.67;100.00
65880;BME280;52661;51.364;6.054;2022-10-16T06:57:23;101110.31;;;12.66;100.00
65880;BME280;52661;51.364;6.054;2022-10-16T06:59:48;101123.56;;;12.68;100.00
65880;BME280;52661;51.364;6.054;2022-10-16T07:02:14;101120.84;;;12.64;100.00
65880;BME280;52661;51.364;6.054;2022-10-16T07:04:39;101123.56;;;12.68;100.00
65880;BME280;52661;51.364;6.054;2022-10-16T07:07:04;101122.38;;;12.76;100.00
65880;BME280;52661;51.364;6.054;2022-10-16T07:09:30;101120.03;;;12.81;100.00
65880;BME280;52661;51.364;6.054;2022-10-16T07:11:55;101125.88;;;12.83;100.00
65880;BME280;52661;51.364;6.054;2022-10-16T07:14:21;101121.56;;;12.90;100.00
65880;BME280;52661;51.364;6.054;2022-10-16T07:16:47;101132.44;;;12.93;100.00
65880;BME280;52661;51.364;6.054;2022-10-16T07:19:14;101131.66;;;12.96;100.00
65880;BME280;52661;51.364;6.054;2022-10-16T07:21:41;101125.03;;;13.01;100.00
65880;BME280;52661;51.364;6.054;2022-10-16T07:24:16;101132.81;;;13.06;100.00
65880;BME280;52661;51.364;6.054;2022-10-16T07:26:43;101142.53;;;13.14;100.00
65880;BME280;52661;51.364;6.054;2022-10-16T07:29:19;101146.78;;;13.18;100.00
65880;BME280;52661;51.364;6.054;2022-10-16T07:31:46;101138.22;;;13.23;100.00
65880;BME280;52661;51.364;6.054;2022-10-16T07:34:13;101154.94;;;13.29;100.00
65880;BME280;52661;51.364;6.054;2022-10-16T07:36:39;101158.06;;;13.31;100.00
65880;BME280;52661;51.364;6.054;2022-10-16T07:39:05;101163.50;;;13.35;100.00
65880;BME280;52661;51.364;6.054;2022-10-16T07:41:30;101166.94;;;13.42;100.00
65880;BME280;52661;51.364;6.054;2022-10-16T07:43:58;101180.94;;;13.48;100.00
65880;BME280;52661;51.364;6.054;2022-10-16T07:46:25;101181.31;;;13.53;100.00
65880;BME280;52661;51.364;6.054;2022-10-16T07:48:51;101200.00;;;13.58;100.00
65880;BME280;52661;51.364;6.054;2022-10-16T07:51:18;101189.44;;;13.64;100.00
65880;BME280;52661;51.364;6.054;2022-10-16T07:53:44;101192.16;;;13.67;100.00
65880;BME280;52661;51.364;6.054;2022-10-16T07:56:10;101204.56;;;13.75;100.00
65880;BME280;52661;51.364;6.054;2022-10-16T07:58:36;101206.91;;;13.80;100.00
65880;BME280;52661;51.364;6.054;2022-10-16T08:01:15;101211.16;;;13.85;100.00
65880;BME280;52661;51.364;6.054;2022-10-16T08:03:42;101212.28;;;13.91;100.00
65880;BME280;52661;51.364;6.054;2022-10-16T08:06:08;101225.91;;;13.98;100.00
65880;BME280;52661;51.364;6.054;2022-10-16T08:08:34;101227.47;;;13.99;100.00
65880;BME280;52661;51.364;6.054;2022-10-16T08:11:00;101222.75;;;14.03;100.00
65880;BME280;52661;51.364;6.054;2022-10-16T08:13:25;101231.69;;;14.07;100.00
65880;BME280;52661;51.364;6.054;2022-10-16T08:15:51;101240.25;;;14.13;100.00
65880;BME280;52661;51.364;6.054;2022-10-16T08:18:18;101243.72;;;14.20;100.00
65880;BME280;52661;51.364;6.054;2022-10-16T08:20:43;101245.25;;;14.25;100.00
65880;BME280;52661;51.364;6.054;2022-10-16T08:23:11;101244.78;;;14.34;100.00
65880;BME280;52661;51.364;6.054;2022-10-16T08:25:37;101248.28;;;14.41;100.00
65880;BME280;52661;51.364;6.054;2022-10-16T08:28:04;101248.25;;;14.45;100.00
65880;BME280;52661;51.364;6.054;2022-10-16T08:30:30;101253.69;;;14.48;100.00
65880;BME280;52661;51.364;6.054;2022-10-16T08:32:56;101250.53;;;14.53;100.00
65880;BME280;52661;51.364;6.054;2022-10-16T08:35:23;101254.00;;;14.57;100.00
65880;BME280;52661;51.364;6.054;2022-10-16T08:37:48;101255.16;;;14.60;100.00
65880;BME280;52661;51.364;6.054;2022-10-16T08:40:23;101264.03;;;14.71;100.00
65880;BME280;52661;51.364;6.054;2022-10-16T08:43:15;101265.16;;;14.77;100.00
65880;BME280;52661;51.364;6.054;2022-10-16T08:46:10;101272.53;;;14.80;100.00
65880;BME280;52661;51.364;6.054;2022-10-16T08:48:49;101272.13;;;14.85;100.00
65880;BME280;52661;51.364;6.054;2022-10-16T08:51:26;101279.91;;;14.90;100.00
65880;BME280;52661;51.364;6.054;2022-10-16T08:53:57;101285.31;;;14.97;100.00
65880;BME280;52661;51.364;6.054;2022-10-16T08:56:24;101283.69;;;15.03;100.00
65880;BME280;52661;51.364;6.054;2022-10-16T08:58:51;101298.09;;;15.07;100.00
65880;BME280;52661;51.364;6.054;2022-10-16T09:01:19;101289.47;;;15.09;100.00
65880;BME280;52661;51.364;6.054;2022-10-16T09:14:29;101300.47;;;15.43;100.00
65880;BME280;52661;51.364;6.054;2022-10-16T09:22:38;101297.56;;;15.60;100.00
65880;BME280;52661;51.364;6.054;2022-10-16T09:25:18;101314.41;;;15.59;100.00
65880;BME280;52661;51.364;6.054;2022-10-16T09:27:47;101305.72;;;15.64;99.31
65880;BME280;52661;51.364;6.054;2022-10-16T09:30:15;101313.03;;;15.74;99.84
65880;BME280;52661;51.364;6.054;2022-10-16T09:32:43;101303.31;;;15.73;99.65
65880;BME280;52661;51.364;6.054;2022-10-16T09:35:18;101306.69;;;15.84;98.56
65880;BME280;52661;51.364;6.054;2022-10-16T09:37:48;101301.13;;;15.91;99.04
65880;BME280;52661;51.364;6.054;2022-10-16T09:40:35;101303.81;;;15.95;95.57
65880;BME280;52661;51.364;6.054;2022-10-16T09:43:19;101309.66;;;15.97;96.24
65880;BME280;52661;51.364;6.054;2022-10-16T09:45:59;101311.84;;;16.09;98.09
65880;BME280;52661;51.364;6.054;2022-10-16T09:51:01;101315.66;;;16.15;95.77
65880;BME280;52661;51.364;6.054;2022-10-16T09:53:39;101316.03;;;16.17;93.58
65880;BME280;52661;51.364;6.054;2022-10-16T09:56:04;101315.81;;;16.04;94.25
65880;BME280;52661;51.364;6.054;2022-10-16T09:58:31;101305.16;;;16.10;95.26
65880;BME280;52661;51.364;6.054;2022-10-16T10:00:58;101316.31;;;16.26;93.33
65880;BME280;52661;51.364;6.054;2022-10-16T10:03:37;101314.34;;;16.27;94.10
65880;BME280;52661;51.364;6.054;2022-10-16T10:08:41;101313.75;;;16.12;94.71
65880;BME280;52661;51.364;6.054;2022-10-16T10:11:17;101322.22;;;16.21;94.80
65880;BME280;52661;51.364;6.054;2022-10-16T10:13:42;101325.97;;;16.34;92.08
65880;BME280;52661;51.364;6.054;2022-10-16T10:16:07;101320.66;;;16.23;93.21
65880;BME280;52661;51.364;6.054;2022-10-16T10:18:33;101322.91;;;16.29;92.16
65880;BME280;52661;51.364;6.054;2022-10-16T10:21:00;101321.53;;;16.44;92.79
65880;BME280;52661;51.364;6.054;2022-10-16T10:23:28;101329.78;;;16.40;90.13
65880;BME280;52661;51.364;6.054;2022-10-16T10:26:21;101330.78;;;16.27;91.63
65880;BME280;52661;51.364;6.054;2022-10-16T10:28:59;101328.66;;;16.38;93.30
65880;BME280;52661;51.364;6.054;2022-10-16T10:31:45;101337.13;;;16.77;92.26
65880;BME280;52661;51.364;6.054;2022-10-16T10:37:23;101337.50;;;17.02;91.55
65880;BME280;52661;51.364;6.054;2022-10-16T10:43:19;101340.53;;;17.31;86.39
65880;BME280;52661;51.364;6.054;2022-10-16T10:45:48;101343.31;;;17.04;85.65
65880;BME280;52661;51.364;6.054;2022-10-16T10:56:47;101359.34;;;16.83;86.45
65880;BME280;52661;51.364;6.054;2022-10-16T10:59:31;101348.03;;;16.81;86.90
65880;BME280;52661;51.364;6.054;2022-10-16T11:02:04;101359.31;;;17.09;86.42
65880;BME280;52661;51.364;6.054;2022-10-16T11:07:30;101357.63;;;17.39;85.61
65880;BME280;52661;51.364;6.054;2022-10-16T11:10:05;101365.84;;;17.62;83.55
65880;BME280;52661;51.364;6.054;2022-10-16T11:12:55;101356.88;;;17.81;83.54
65880;BME280;52661;51.364;6.054;2022-10-16T11:15:29;101363.97;;;17.79;83.54
65880;BME280;52661;51.364;6.054;2022-10-16T11:20:45;101365.28;;;17.28;82.71
65880;BME280;52661;51.364;6.054;2022-10-16T11:23:21;101357.38;;;17.53;82.76
65880;BME280;52661;51.364;6.054;2022-10-16T11:25:48;101359.31;;;17.95;81.25
65880;BME280;52661;51.364;6.054;2022-10-16T11:28:27;101359.44;;;18.28;80.25
65880;BME280;52661;51.364;6.054;2022-10-16T11:31:15;101358.50;;;18.34;78.94
65880;BME280;52661;51.364;6.054;2022-10-16T11:33:47;101368.59;;;18.41;78.41
65880;BME280;52661;51.364;6.054;2022-10-16T11:36:28;101367.44;;;18.38;77.70
65880;BME280;52661;51.364;6.054;2022-10-16T11:39:28;101366.19;;;18.43;75.60
65880;BME280;52661;51.364;6.054;2022-10-16T11:42:16;101376.81;;;18.60;75.18
65880;BME280;52661;51.364;6.054;2022-10-16T11:45:04;101376.25;;;18.49;75.37
65880;BME280;52661;51.364;6.054;2022-10-16T11:47:42;101374.94;;;18.74;77.30
65880;BME280;52661;51.364;6.054;2022-10-16T11:50:13;101382.16;;;19.00;74.49
65880;BME280;52661;51.364;6.054;2022-10-16T11:55:34;101380.97;;;19.01;73.09
65880;BME280;52661;51.364;6.054;2022-10-16T12:00:45;101382.56;;;18.30;72.53
65880;BME280;52661;51.364;6.054;2022-10-16T12:08:30;101369.47;;;17.98;75.67
65880;BME280;52661;51.364;6.054;2022-10-16T12:13:46;101374.66;;;18.12;75.03
65880;BME280;52661;51.364;6.054;2022-10-16T12:18:40;101370.03;;;18.81;74.30
65880;BME280;52661;51.364;6.054;2022-10-16T12:21:05;101363.53;;;18.91;71.69
65880;BME280;52661;51.364;6.054;2022-10-16T12:23:52;101376.84;;;19.09;71.69
65880;BME280;52661;51.364;6.054;2022-10-16T12:26:29;101366.19;;;19.11;70.61
65880;BME280;52661;51.364;6.054;2022-10-16T12:28:55;101374.88;;;19.42;70.56
65880;BME280;52661;51.364;6.054;2022-10-16T12:31:21;101367.69;;;19.60;69.80
65880;BME280;52661;51.364;6.054;2022-10-16T12:34:00;101377.47;;;19.61;69.27
65880;BME280;52661;51.364;6.054;2022-10-16T12:36:37;101371.84;;;19.81;68.66
65880;BME280;52661;51.364;6.054;2022-10-16T12:39:03;101379.53;;;19.74;67.62
65880;BME280;52661;51.364;6.054;2022-10-16T12:41:33;101378.25;;;19.91;67.84
65880;BME280;52661;51.364;6.054;2022-10-16T12:44:05;101373.72;;;19.55;69.06
65880;BME280;52661;51.364;6.054;2022-10-16T12:51:53;101367.91;;;18.73;69.56
65880;BME280;52661;51.364;6.054;2022-10-16T12:54:45;101365.47;;;18.58;71.06
65880;BME280;52661;51.364;6.054;2022-10-16T13:06:13;101375.88;;;18.67;71.84
65880;BME280;52661;51.364;6.054;2022-10-16T13:08:50;101378.28;;;18.45;74.60
65880;BME280;52661;51.364;6.054;2022-10-16T13:22:34;101377.94;;;18.07;77.62
65880;BME280;52661;51.364;6.054;2022-10-16T13:27:49;101382.50;;;18.14;77.53
65880;BME280;52661;51.364;6.054;2022-10-16T13:30:26;101373.22;;;18.44;74.45
65880;BME280;52661;51.364;6.054;2022-10-16T13:33:07;101377.75;;;18.54;75.48
65880;BME280;52661;51.364;6.054;2022-10-16T13:35:37;101383.19;;;18.90;73.47
65880;BME280;52661;51.364;6.054;2022-10-16T13:43:40;101397.28;;;18.20;76.93
65880;BME280;52661;51.364;6.054;2022-10-16T13:46:12;101389.63;;;18.11;76.68
65880;BME280;52661;51.364;6.054;2022-10-16T13:48:38;101404.69;;;18.03;76.68
65880;BME280;52661;51.364;6.054;2022-10-16T13:51:15;101399.25;;;18.00;77.93
65880;BME280;52661;51.364;6.054;2022-10-16T13:53:42;101398.22;;;17.94;78.36
65880;BME280;52661;51.364;6.054;2022-10-16T13:56:13;101399.88;;;17.88;77.46
65880;BME280;52661;51.364;6.054;2022-10-16T13:58:39;101396.72;;;17.89;77.26
65880;BME280;52661;51.364;6.054;2022-10-16T14:03:41;101400.25;;;17.90;77.16
65880;BME280;52661;51.364;6.054;2022-10-16T14:06:13;101409.63;;;17.92;78.59
65880;BME280;52661;51.364;6.054;2022-10-16T14:08:43;101409.28;;;17.90;77.92
65880;BME280;52661;51.364;6.054;2022-10-16T14:11:11;101407.78;;;17.86;76.34
65880;BME280;52661;51.364;6.054;2022-10-16T14:13:39;101404.31;;;17.82;76.67
65880;BME280;52661;51.364;6.054;2022-10-16T14:16:08;101415.72;;;17.80;77.00
65880;BME280;52661;51.364;6.054;2022-10-16T14:18:34;101409.47;;;17.80;77.57
65880;BME280;52661;51.364;6.054;2022-10-16T14:21:06;101403.28;;;17.76;79.43
65880;BME280;52661;51.364;6.054;2022-10-16T14:23:37;101402.63;;;17.68;80.41
65880;BME280;52661;51.364;6.054;2022-10-16T14:26:12;101407.81;;;17.62;79.85
65880;BME280;52661;51.364;6.054;2022-10-16T14:28:39;101414.50;;;17.61;78.25
65880;BME280;52661;51.364;6.054;2022-10-16T14:33:45;101411.78;;;17.61;77.98
65880;BME280;52661;51.364;6.054;2022-10-16T14:36:15;101400.34;;;17.63;79.24
65880;BME280;52661;51.364;6.054;2022-10-16T14:41:23;101384.72;;;17.60;78.82
65880;BME280;52661;51.364;6.054;2022-10-16T14:44:02;101390.56;;;17.62;79.17
65880;BME280;52661;51.364;6.054;2022-10-16T14:46:38;101400.84;;;17.58;80.97
65880;BME280;52661;51.364;6.054;2022-10-16T14:51:39;101378.94;;;17.54;83.28